sensor_id;sensor_type;location;lat;lon;timestamp;P1;durP1;ratioP1;P2;durP2;ratioP2
8652;SDS011;4364;52.426;9.424;2023-08-31T00:01:22;20.77;;;15.13;;
8652;SDS011;4364;52.426;9.424;2023-08-31T00:03:49;20.67;;;14.90;;
8652;SDS011;4364;52.426;9.424;2023-08-31T00:06:15;19.17;;;13.43;;
8652;SDS011;4364;52.426;9.424;2023-08-31T00:08:42;17.83;;;14.17;;
8652;SDS011;4364;52.426;9.424;2023-08-31T00:11:08;19.37;;;13.83;;
8652;SDS011;4364;52.426;9.424;2023-08-31T00:13:35;19.33;;;12.90;;
8652;SDS011;4364;52.426;9.424;2023-08-31T00:16:01;20.70;;;13.40;;
8652;SDS011;4364;52.426;9.424;2023-08-31T00:18:28;18.13;;;12.10;;
8652;SDS011;4364;52.426;9.424;2023-08-31T00:20:55;17.00;;;11.83;;
8652;SDS011;4364;52.426;9.424;2023-08-31T00:23:22;16.33;;;12.07;;
8652;SDS011;4364;52.426;9.424;2023-08-31T00:25:49;15.83;;;11.07;;
8652;SDS011;4364;52.426;9.424;2023-08-31T00:28:17;14.80;;;11.90;;
8652;SDS011;4364;52.426;9.424;2023-08-31T00:30:44;18.53;;;12.27;;
8652;SDS011;4364;52.426;9.424;2023-08-31T00:33:12;16.13;;;11.50;;
8652;SDS011;4364;52.426;9.424;2023-08-31T00:35:39;16.93;;;11.93;;
8652;SDS011;4364;52.426;9.424;2023-08-31T00:38:12;13.37;;;10.37;;
8652;SDS011;4364;52.426;9.424;2023-08-31T00:40:40;16.40;;;10.97;;
8652;SDS011;4364;52.426;9.424;2023-08-31T00:43:08;16.00;;;11.20;;
8652;SDS011;4364;52.426;9.424;2023-08-31T00:45:36;15.90;;;11.20;;
8652;SDS011;4364;52.426;9.424;2023-08-31T00:48:04;15.40;;;11.97;;
8652;SDS011;4364;52.426;9.424;2023-08-31T00:50:32;17.23;;;11.47;;
8652;SDS011;4364;52.426;9.424;2023-08-31T00:53:00;18.30;;;12.10;;
8652;SDS011;4364;52.426;9.424;2023-08-31T00:55:27;13.93;;;11.03;;
8652;SDS011;4364;52.426;9.424;2023-08-31T00:57:54;16.37;;;11.83;;
8652;SDS011;4364;52.426;9.424;2023-08-31T01:00:23;15.97;;;11.63;;
8652;SDS011;4364;52.426;9.424;2023-08-31T01:03:01;15.60;;;11.90;;
8652;SDS011;4364;52.426;9.424;2023-08-31T01:08:29;18.40;;;12.20;;
8652;SDS011;4364;52.426;9.424;2023-08-31T01:11:09;16.73;;;11.80;;
8652;SDS011;4364;52.426;9.424;2023-08-31T01:13:45;18.20;;;12.33;;
8652;SDS011;4364;52.426;9.424;2023-08-31T01:16:21;17.83;;;12.60;;
8652;SDS011;4364;52.426;9.424;2023-08-31T01:18:52;19.27;;;13.23;;
8652;SDS011;4364;52.426;9.424;2023-08-31T01:23:52;17.93;;;12.90;;
8652;SDS011;4364;52.426;9.424;2023-08-31T01:26:20;20.93;;;13.53;;
8652;SDS011;4364;52.426;9.424;2023-08-31T01:28:49;18.33;;;13.00;;
8652;SDS011;4364;52.426;9.424;2023-08-31T01:31:17;21.17;;;13.20;;
8652;SDS011;4364;52.426;9.424;2023-08-31T01:33:46;19.17;;;13.63;;
8652;SDS011;4364;52.426;9.424;2023-08-31T01:38:52;21.47;;;12.70;;
8652;SDS011;4364;52.426;9.424;2023-08-31T01:41:24;18.43;;;13.17;;
8652;SDS011;4364;52.426;9.424;2023-08-31T01:43:55;17.57;;;14.43;;
8652;SDS011;4364;52.426;9.424;2023-08-31T01:46:22;21.30;;;15.27;;
8652;SDS011;4364;52.426;9.424;2023-08-31T01:48:49;20.77;;;13.53;;
8652;SDS011;4364;52.426;9.424;2023-08-31T01:51:15;20.93;;;13.60;;
8652;SDS011;4364;52.426;9.424;2023-08-31T01:53:43;20.50;;;15.10;;
8652;SDS011;4364;52.426;9.424;2023-08-31T01:56:10;23.23;;;13.97;;
8652;SDS011;4364;52.426;9.424;2023-08-31T01:58:37;21.57;;;14.63;;
8652;SDS011;4364;52.426;9.424;2023-08-31T02:01:03;20.87;;;14.23;;
8652;SDS011;4364;52.426;9.424;2023-08-31T02:03:30;21.40;;;13.67;;
8652;SDS011;4364;52.426;9.424;2023-08-31T02:05:57;22.03;;;14.80;;
8652;SDS011;4364;52.426;9.424;2023-08-31T02:08:23;21.50;;;15.47;;
8652;SDS011;4364;52.426;9.424;2023-08-31T02:10:50;21.80;;;14.90;;
8652;SDS011;4364;52.426;9.424;2023-08-31T02:13:21;21.07;;;15.10;;
8652;SDS011;4364;52.426;9.424;2023-08-31T02:15:52;21.27;;;14.33;;
8652;SDS011;4364;52.426;9.424;2023-08-31T02:18:19;18.87;;;13.53;;
8652;SDS011;4364;52.426;9.424;2023-08-31T02:20:46;23.43;;;15.13;;
8652;SDS011;4364;52.426;9.424;2023-08-31T02:23:13;20.37;;;13.77;;
8652;SDS011;4364;52.426;9.424;2023-08-31T02:25:40;19.57;;;13.03;;
8652;SDS011;4364;52.426;9.424;2023-08-31T02:28:06;22.73;;;13.80;;
8652;SDS011;4364;52.426;9.424;2023-08-31T02:30:36;23.70;;;13.67;;
8652;SDS011;4364;52.426;9.424;2023-08-31T02:33:04;21.20;;;13.43;;
8652;SDS011;4364;52.426;9.424;2023-08-31T02:35:31;18.83;;;13.27;;
8652;SDS011;4364;52.426;9.424;2023-08-31T02:37:57;17.33;;;13.50;;
8652;SDS011;4364;52.426;9.424;2023-08-31T02:40:24;18.57;;;12.80;;
8652;SDS011;4364;52.426;9.424;2023-08-31T02:42:51;20.33;;;13.13;;
8652;SDS011;4364;52.426;9.424;2023-08-31T02:45:19;18.57;;;13.33;;
8652;SDS011;4364;52.426;9.424;2023-08-31T02:47:46;18.43;;;12.50;;
8652;SDS011;4364;52.426;9.424;2023-08-31T02:50:16;17.43;;;12.07;;
8652;SDS011;4364;52.426;9.424;2023-08-31T02:52:42;16.33;;;11.77;;
8652;SDS011;4364;52.426;9.424;2023-08-31T02:55:09;18.70;;;12.83;;
8652;SDS011;4364;52.426;9.424;2023-08-31T02:57:36;16.77;;;12.17;;
8652;SDS011;4364;52.426;9.424;2023-08-31T03:00:03;16.27;;;12.03;;
8652;SDS011;4364;52.426;9.424;2023-08-31T03:02:35;18.33;;;12.67;;
8652;SDS011;4364;52.426;9.424;2023-08-31T03:05:03;19.77;;;12.37;;
8652;SDS011;4364;52.426;9.424;2023-08-31T03:07:30;18.63;;;12.93;;
8652;SDS011;4364;52.426;9.424;2023-08-31T03:09:56;16.53;;;12.20;;
8652;SDS011;4364;52.426;9.424;2023-08-31T03:12:23;16.33;;;11.27;;
8652;SDS011;4364;52.426;9.424;2023-08-31T03:14:50;18.90;;;11.87;;
8652;SDS011;4364;52.426;9.424;2023-08-31T03:17:17;14.63;;;11.53;;
8652;SDS011;4364;52.426;9.424;2023-08-31T03:19:43;18.40;;;11.63;;
8652;SDS011;4364;52.426;9.424;2023-08-31T03:22:11;18.87;;;11.60;;
8652;SDS011;4364;52.426;9.424;2023-08-31T03:24:37;16.70;;;10.90;;
8652;SDS011;4364;52.426;9.424;2023-08-31T03:27:04;18.97;;;10.90;;
8652;SDS011;4364;52.426;9.424;2023-08-31T03:29:31;19.37;;;11.00;;
8652;SDS011;4364;52.426;9.424;2023-08-31T03:31:59;19.30;;;11.33;;
8652;SDS011;4364;52.426;9.424;2023-08-31T03:34:30;18.23;;;10.67;;
8652;SDS011;4364;52.426;9.424;2023-08-31T03:36:58;17.20;;;10.80;;
8652;SDS011;4364;52.426;9.424;2023-08-31T03:39:25;14.73;;;10.13;;
8652;SDS011;4364;52.426;9.424;2023-08-31T03:41:52;16.27;;;10.67;;
8652;SDS011;4364;52.426;9.424;2023-08-31T03:44:20;14.43;;;10.20;;
8652;SDS011;4364;52.426;9.424;2023-08-31T03:46:48;16.93;;;10.90;;
8652;SDS011;4364;52.426;9.424;2023-08-31T03:49:15;18.57;;;10.40;;
8652;SDS011;4364;52.426;9.424;2023-08-31T03:51:41;16.63;;;10.47;;
8652;SDS011;4364;52.426;9.424;2023-08-31T03:54:10;14.80;;;10.20;;
8652;SDS011;4364;52.426;9.424;2023-08-31T03:56:39;17.70;;;10.23;;
8652;SDS011;4364;52.426;9.424;2023-08-31T03:59:06;17.30;;;9.50;;
8652;SDS011;4364;52.426;9.424;2023-08-31T04:01:32;13.73;;;9.53;;
8652;SDS011;4364;52.426;9.424;2023-08-31T04:04:00;12.90;;;9.77;;
8652;SDS011;4364;52.426;9.424;2023-08-31T04:06:27;16.93;;;9.40;;
8652;SDS011;4364;52.426;9.424;2023-08-31T04:08:55;12.53;;;9.10;;
8652;SDS011;4364;52.426;9.424;2023-08-31T04:11:21;14.80;;;8.70;;
8652;SDS011;4364;52.426;9.424;2023-08-31T04:13:48;13.97;;;8.83;;
8652;SDS011;4364;52.426;9.424;2023-08-31T04:16:15;16.20;;;9.07;;
8652;SDS011;4364;52.426;9.424;2023-08-31T04:18:41;14.00;;;8.40;;
8652;SDS011;4364;52.426;9.424;2023-08-31T04:21:08;15.80;;;9.30;;
8652;SDS011;4364;52.426;9.424;2023-08-31T04:23:35;13.73;;;8.73;;
8652;SDS011;4364;52.426;9.424;2023-08-31T04:26:09;14.87;;;8.80;;
8652;SDS011;4364;52.426;9.424;2023-08-31T04:28:36;17.43;;;9.17;;
8652;SDS011;4364;52.426;9.424;2023-08-31T04:31:06;15.57;;;9.17;;
8652;SDS011;4364;52.426;9.424;2023-08-31T04:33:36;20.40;;;9.00;;
8652;SDS011;4364;52.426;9.424;2023-08-31T04:36:04;12.70;;;8.63;;
8652;SDS011;4364;52.426;9.424;2023-08-31T04:38:32;14.13;;;8.80;;
8652;SDS011;4364;52.426;9.424;2023-08-31T04:41:00;12.83;;;8.40;;
8652;SDS011;4364;52.426;9.424;2023-08-31T04:43:27;12.03;;;8.57;;
8652;SDS011;4364;52.426;9.424;2023-08-31T04:45:54;14.70;;;8.63;;
8652;SDS011;4364;52.426;9.424;2023-08-31T04:48:21;14.47;;;8.47;;
8652;SDS011;4364;52.426;9.424;2023-08-31T04:50:48;12.73;;;8.07;;
8652;SDS011;4364;52.426;9.424;2023-08-31T04:53:15;11.57;;;8.00;;
8652;SDS011;4364;52.426;9.424;2023-08-31T04:55:41;12.23;;;9.17;;
8652;SDS011;4364;52.426;9.424;2023-08-31T04:58:08;15.40;;;9.07;;
8652;SDS011;4364;52.426;9.424;2023-08-31T05:00:34;15.20;;;9.53;;
8652;SDS011;4364;52.426;9.424;2023-08-31T05:03:01;17.50;;;9.47;;
8652;SDS011;4364;52.426;9.424;2023-08-31T05:05:29;13.37;;;8.67;;
8652;SDS011;4364;52.426;9.424;2023-08-31T05:07:58;16.27;;;9.07;;
8652;SDS011;4364;52.426;9.424;2023-08-31T05:10:26;14.50;;;9.13;;
8652;SDS011;4364;52.426;9.424;2023-08-31T05:12:52;14.27;;;10.07;;
8652;SDS011;4364;52.426;9.424;2023-08-31T05:15:19;15.30;;;10.00;;
8652;SDS011;4364;52.426;9.424;2023-08-31T05:17:45;17.53;;;9.87;;
8652;SDS011;4364;52.426;9.424;2023-08-31T05:20:12;14.73;;;10.30;;
8652;SDS011;4364;52.426;9.424;2023-08-31T05:22:39;14.57;;;10.13;;
8652;SDS011;4364;52.426;9.424;2023-08-31T05:25:05;16.43;;;10.73;;
8652;SDS011;4364;52.426;9.424;2023-08-31T05:27:32;17.27;;;10.37;;
8652;SDS011;4364;52.426;9.424;2023-08-31T05:29:59;15.07;;;10.70;;
8652;SDS011;4364;52.426;9.424;2023-08-31T05:32:27;15.47;;;10.93;;
8652;SDS011;4364;52.426;9.424;2023-08-31T05:34:55;13.90;;;10.23;;
8652;SDS011;4364;52.426;9.424;2023-08-31T05:37:22;17.93;;;10.47;;
8652;SDS011;4364;52.426;9.424;2023-08-31T05:39:48;16.80;;;11.23;;
8652;SDS011;4364;52.426;9.424;2023-08-31T05:42:16;15.10;;;11.73;;
8652;SDS011;4364;52.426;9.424;2023-08-31T05:44:42;17.67;;;11.83;;
8652;SDS011;4364;52.426;9.424;2023-08-31T05:47:09;18.87;;;12.00;;
8652;SDS011;4364;52.426;9.424;2023-08-31T05:49:36;20.93;;;12.83;;
8652;SDS011;4364;52.426;9.424;2023-08-31T05:52:02;17.63;;;13.23;;
8652;SDS011;4364;52.426;9.424;2023-08-31T05:54:29;18.53;;;14.07;;
8652;SDS011;4364;52.426;9.424;2023-08-31T05:56:56;20.40;;;14.37;;
8652;SDS011;4364;52.426;9.424;2023-08-31T05:59:22;21.13;;;15.93;;
8652;SDS011;4364;52.426;9.424;2023-08-31T06:01:49;22.43;;;16.30;;
8652;SDS011;4364;52.426;9.424;2023-08-31T06:04:17;21.33;;;16.30;;
8652;SDS011;4364;52.426;9.424;2023-08-31T06:06:44;19.90;;;16.80;;
8652;SDS011;4364;52.426;9.424;2023-08-31T06:09:10;23.53;;;17.93;;
8652;SDS011;4364;52.426;9.424;2023-08-31T06:11:37;24.67;;;19.03;;
8652;SDS011;4364;52.426;9.424;2023-08-31T06:14:03;24.00;;;19.70;;
8652;SDS011;4364;52.426;9.424;2023-08-31T06:16:30;24.10;;;20.10;;
8652;SDS011;4364;52.426;9.424;2023-08-31T06:18:57;26.63;;;20.87;;
8652;SDS011;4364;52.426;9.424;2023-08-31T06:21:23;28.03;;;21.60;;
8652;SDS011;4364;52.426;9.424;2023-08-31T06:23:50;28.00;;;22.23;;
8652;SDS011;4364;52.426;9.424;2023-08-31T06:26:16;27.80;;;22.67;;
8652;SDS011;4364;52.426;9.424;2023-08-31T06:28:43;25.83;;;21.70;;
8652;SDS011;4364;52.426;9.424;2023-08-31T06:31:09;27.80;;;22.53;;
8652;SDS011;4364;52.426;9.424;2023-08-31T06:33:36;27.30;;;23.20;;
8652;SDS011;4364;52.426;9.424;2023-08-31T06:36:02;27.13;;;22.57;;
8652;SDS011;4364;52.426;9.424;2023-08-31T06:38:29;29.33;;;23.73;;
8652;SDS011;4364;52.426;9.424;2023-08-31T06:40:56;32.43;;;24.37;;
8652;SDS011;4364;52.426;9.424;2023-08-31T06:43:25;31.33;;;24.10;;
8652;SDS011;4364;52.426;9.424;2023-08-31T06:45:55;31.73;;;24.80;;
8652;SDS011;4364;52.426;9.424;2023-08-31T06:48:32;30.83;;;25.53;;
8652;SDS011;4364;52.426;9.424;2023-08-31T06:50:59;34.73;;;26.67;;
8652;SDS011;4364;52.426;9.424;2023-08-31T06:53:27;30.80;;;25.93;;
8652;SDS011;4364;52.426;9.424;2023-08-31T06:55:54;32.90;;;25.20;;
8652;SDS011;4364;52.426;9.424;2023-08-31T06:58:20;33.77;;;27.37;;
8652;SDS011;4364;52.426;9.424;2023-08-31T07:00:46;34.47;;;27.87;;
8652;SDS011;4364;52.426;9.424;2023-08-31T07:03:14;32.87;;;26.17;;
8652;SDS011;4364;52.426;9.424;2023-08-31T07:05:42;33.00;;;27.40;;
8652;SDS011;4364;52.426;9.424;2023-08-31T07:08:10;33.20;;;26.63;;
8652;SDS011;4364;52.426;9.424;2023-08-31T07:10:36;30.87;;;26.33;;
8652;SDS011;4364;52.426;9.424;2023-08-31T07:13:03;32.43;;;25.93;;
8652;SDS011;4364;52.426;9.424;2023-08-31T07:15:31;30.23;;;23.73;;
8652;SDS011;4364;52.426;9.424;2023-08-31T07:17:58;27.00;;;22.73;;
8652;SDS011;4364;52.426;9.424;2023-08-31T07:20:25;29.23;;;24.03;;
8652;SDS011;4364;52.426;9.424;2023-08-31T07:22:52;29.30;;;23.67;;
8652;SDS011;4364;52.426;9.424;2023-08-31T07:25:18;27.63;;;23.03;;
8652;SDS011;4364;52.426;9.424;2023-08-31T07:27:45;28.87;;;22.60;;
8652;SDS011;4364;52.426;9.424;2023-08-31T07:30:12;30.30;;;24.07;;
8652;SDS011;4364;52.426;9.424;2023-08-31T07:32:39;30.00;;;23.77;;
8652;SDS011;4364;52.426;9.424;2023-08-31T07:35:05;30.77;;;23.67;;
8652;SDS011;4364;52.426;9.424;2023-08-31T07:37:32;27.03;;;21.77;;
8652;SDS011;4364;52.426;9.424;2023-08-31T07:39:59;27.57;;;21.83;;
8652;SDS011;4364;52.426;9.424;2023-08-31T07:42:29;25.93;;;21.83;;
8652;SDS011;4364;52.426;9.424;2023-08-31T07:44:56;26.23;;;21.40;;
8652;SDS011;4364;52.426;9.424;2023-08-31T07:47:22;30.83;;;22.23;;
8652;SDS011;4364;52.426;9.424;2023-08-31T07:49:49;26.57;;;22.93;;
8652;SDS011;4364;52.426;9.424;2023-08-31T07:52:16;27.50;;;22.60;;
8652;SDS011;4364;52.426;9.424;2023-08-31T07:54:42;26.77;;;23.00;;
8652;SDS011;4364;52.426;9.424;2023-08-31T07:57:08;25.83;;;22.30;;
8652;SDS011;4364;52.426;9.424;2023-08-31T07:59:35;27.20;;;22.33;;
8652;SDS011;4364;52.426;9.424;2023-08-31T08:02:05;24.83;;;20.93;;
8652;SDS011;4364;52.426;9.424;2023-08-31T08:04:32;26.60;;;21.00;;
8652;SDS011;4364;52.426;9.424;2023-08-31T08:06:59;26.47;;;20.60;;
8652;SDS011;4364;52.426;9.424;2023-08-31T08:09:26;21.93;;;19.00;;
8652;SDS011;4364;52.426;9.424;2023-08-31T08:11:52;21.93;;;18.70;;
8652;SDS011;4364;52.426;9.424;2023-08-31T08:14:19;22.47;;;18.00;;
8652;SDS011;4364;52.426;9.424;2023-08-31T08:16:45;23.30;;;18.00;;
8652;SDS011;4364;52.426;9.424;2023-08-31T08:19:12;20.13;;;17.47;;
8652;SDS011;4364;52.426;9.424;2023-08-31T08:21:38;20.17;;;17.77;;
8652;SDS011;4364;52.426;9.424;2023-08-31T08:24:05;18.57;;;16.50;;
8652;SDS011;4364;52.426;9.424;2023-08-31T08:26:32;20.00;;;16.73;;
8652;SDS011;4364;52.426;9.424;2023-08-31T08:28:58;18.30;;;16.30;;
8652;SDS011;4364;52.426;9.424;2023-08-31T08:31:26;20.53;;;16.60;;
8652;SDS011;4364;52.426;9.424;2023-08-31T08:33:53;21.20;;;16.00;;
8652;SDS011;4364;52.426;9.424;2023-08-31T08:36:19;18.67;;;16.37;;
8652;SDS011;4364;52.426;9.424;2023-08-31T08:38:46;20.17;;;17.73;;
8652;SDS011;4364;52.426;9.424;2023-08-31T08:41:13;17.60;;;15.70;;
8652;SDS011;4364;52.426;9.424;2023-08-31T08:43:41;18.83;;;14.80;;
8652;SDS011;4364;52.426;9.424;2023-08-31T08:46:10;16.77;;;14.67;;
8652;SDS011;4364;52.426;9.424;2023-08-31T08:48:37;17.53;;;14.40;;
8652;SDS011;4364;52.426;9.424;2023-08-31T08:51:04;18.50;;;14.33;;
8652;SDS011;4364;52.426;9.424;2023-08-31T08:53:32;17.40;;;14.97;;
8652;SDS011;4364;52.426;9.424;2023-08-31T08:55:59;17.33;;;15.63;;
8652;SDS011;4364;52.426;9.424;2023-08-31T08:58:26;17.90;;;15.27;;
8652;SDS011;4364;52.426;9.424;2023-08-31T09:00:53;16.43;;;14.73;;
8652;SDS011;4364;52.426;9.424;2023-08-31T09:03:23;18.20;;;15.07;;
8652;SDS011;4364;52.426;9.424;2023-08-31T09:05:50;17.63;;;15.63;;
8652;SDS011;4364;52.426;9.424;2023-08-31T09:08:26;15.80;;;14.00;;
8652;SDS011;4364;52.426;9.424;2023-08-31T09:10:55;21.37;;;14.67;;
8652;SDS011;4364;52.426;9.424;2023-08-31T09:13:26;14.80;;;13.13;;
8652;SDS011;4364;52.426;9.424;2023-08-31T09:15:55;15.97;;;13.43;;
8652;SDS011;4364;52.426;9.424;2023-08-31T09:18:26;15.07;;;13.10;;
8652;SDS011;4364;52.426;9.424;2023-08-31T09:20:54;14.53;;;12.97;;
8652;SDS011;4364;52.426;9.424;2023-08-31T09:23:24;16.50;;;14.10;;
8652;SDS011;4364;52.426;9.424;2023-08-31T09:25:52;14.83;;;13.30;;
8652;SDS011;4364;52.426;9.424;2023-08-31T09:28:21;15.93;;;14.07;;
8652;SDS011;4364;52.426;9.424;2023-08-31T09:31:04;16.67;;;14.60;;
8652;SDS011;4364;52.426;9.424;2023-08-31T09:33:34;15.53;;;13.83;;
8652;SDS011;4364;52.426;9.424;2023-08-31T09:36:02;15.97;;;13.87;;
8652;SDS011;4364;52.426;9.424;2023-08-31T09:38:30;20.63;;;14.47;;
8652;SDS011;4364;52.426;9.424;2023-08-31T09:41:03;15.60;;;13.23;;
8652;SDS011;4364;52.426;9.424;2023-08-31T09:43:32;14.17;;;12.10;;
8652;SDS011;4364;52.426;9.424;2023-08-31T09:45:59;15.20;;;12.67;;
8652;SDS011;4364;52.426;9.424;2023-08-31T09:48:28;14.03;;;12.50;;
8652;SDS011;4364;52.426;9.424;2023-08-31T09:50:55;14.20;;;12.57;;
8652;SDS011;4364;52.426;9.424;2023-08-31T09:53:25;13.03;;;11.63;;
8652;SDS011;4364;52.426;9.424;2023-08-31T09:55:55;12.93;;;11.07;;
8652;SDS011;4364;52.426;9.424;2023-08-31T09:58:23;13.53;;;12.00;;
8652;SDS011;4364;52.426;9.424;2023-08-31T10:00:51;14.80;;;11.30;;
8652;SDS011;4364;52.426;9.424;2023-08-31T10:03:20;13.23;;;10.53;;
8652;SDS011;4364;52.426;9.424;2023-08-31T10:05:48;11.27;;;10.17;;
8652;SDS011;4364;52.426;9.424;2023-08-31T10:08:16;11.77;;;10.50;;
8652;SDS011;4364;52.426;9.424;2023-08-31T10:10:43;12.57;;;10.73;;
8652;SDS011;4364;52.426;9.424;2023-08-31T10:13:11;13.27;;;10.63;;
8652;SDS011;4364;52.426;9.424;2023-08-31T10:15:38;11.13;;;9.63;;
8652;SDS011;4364;52.426;9.424;2023-08-31T10:18:06;8.93;;;8.03;;
8652;SDS011;4364;52.426;9.424;2023-08-31T10:20:34;11.17;;;8.97;;
8652;SDS011;4364;52.426;9.424;2023-08-31T10:23:04;11.10;;;9.17;;
8652;SDS011;4364;52.426;9.424;2023-08-31T10:28:26;9.43;;;8.17;;
8652;SDS011;4364;52.426;9.424;2023-08-31T10:33:27;9.60;;;7.93;;
8652;SDS011;4364;52.426;9.424;2023-08-31T10:35:56;10.83;;;7.63;;
8652;SDS011;4364;52.426;9.424;2023-08-31T10:43:45;7.03;;;5.50;;
8652;SDS011;4364;52.426;9.424;2023-08-31T10:46:17;7.53;;;5.87;;
8652;SDS011;4364;52.426;9.424;2023-08-31T10:48:51;8.43;;;5.63;;
8652;SDS011;4364;52.426;9.424;2023-08-31T10:51:21;7.57;;;5.30;;
8652;SDS011;4364;52.426;9.424;2023-08-31T10:53:48;9.50;;;4.67;;
8652;SDS011;4364;52.426;9.424;2023-08-31T10:56:16;5.63;;;4.67;;
8652;SDS011;4364;52.426;9.424;2023-08-31T10:58:51;7.50;;;4.90;;
8652;SDS011;4364;52.426;9.424;2023-08-31T11:04:31;8.07;;;4.87;;
8652;SDS011;4364;52.426;9.424;2023-08-31T11:07:23;6.97;;;5.37;;
8652;SDS011;4364;52.426;9.424;2023-08-31T11:09:51;8.67;;;5.60;;
8652;SDS011;4364;52.426;9.424;2023-08-31T11:12:17;7.63;;;5.40;;
8652;SDS011;4364;52.426;9.424;2023-08-31T11:14:48;8.27;;;5.57;;
8652;SDS011;4364;52.426;9.424;2023-08-31T11:17:14;6.90;;;5.57;;
8652;SDS011;4364;52.426;9.424;2023-08-31T11:19:41;7.93;;;5.30;;
8652;SDS011;4364;52.426;9.424;2023-08-31T11:22:08;6.37;;;5.07;;
8652;SDS011;4364;52.426;9.424;2023-08-31T11:24:36;5.70;;;5.07;;
8652;SDS011;4364;52.426;9.424;2023-08-31T11:27:06;5.07;;;4.40;;
8652;SDS011;4364;52.426;9.424;2023-08-31T11:29:38;6.30;;;4.83;;
8652;SDS011;4364;52.426;9.424;2023-08-31T11:32:08;5.67;;;4.10;;
8652;SDS011;4364;52.426;9.424;2023-08-31T11:34:35;6.13;;;4.33;;
8652;SDS011;4364;52.426;9.424;2023-08-31T11:37:07;6.93;;;4.23;;
8652;SDS011;4364;52.426;9.424;2023-08-31T11:39:34;5.17;;;4.27;;
8652;SDS011;4364;52.426;9.424;2023-08-31T11:42:01;6.60;;;4.17;;
8652;SDS011;4364;52.426;9.424;2023-08-31T11:44:29;4.03;;;3.63;;
8652;SDS011;4364;52.426;9.424;2023-08-31T11:46:56;4.73;;;3.80;;
8652;SDS011;4364;52.426;9.424;2023-08-31T11:49:23;4.87;;;3.17;;
8652;SDS011;4364;52.426;9.424;2023-08-31T11:51:52;4.13;;;3.10;;
8652;SDS011;4364;52.426;9.424;2023-08-31T11:54:19;3.43;;;2.50;;
8652;SDS011;4364;52.426;9.424;2023-08-31T11:56:46;6.23;;;2.87;;
8652;SDS011;4364;52.426;9.424;2023-08-31T11:59:18;5.10;;;3.27;;
8652;SDS011;4364;52.426;9.424;2023-08-31T12:01:46;3.30;;;2.40;;
8652;SDS011;4364;52.426;9.424;2023-08-31T12:04:23;3.47;;;3.17;;
8652;SDS011;4364;52.426;9.424;2023-08-31T12:06:51;4.13;;;3.00;;
8652;SDS011;4364;52.426;9.424;2023-08-31T12:09:19;4.00;;;3.30;;
8652;SDS011;4364;52.426;9.424;2023-08-31T12:11:50;3.73;;;2.63;;
8652;SDS011;4364;52.426;9.424;2023-08-31T12:14:21;5.10;;;2.30;;
8652;SDS011;4364;52.426;9.424;2023-08-31T12:16:50;3.57;;;2.40;;
8652;SDS011;4364;52.426;9.424;2023-08-31T12:19:17;3.70;;;2.50;;
8652;SDS011;4364;52.426;9.424;2023-08-31T12:21:45;3.20;;;2.50;;
8652;SDS011;4364;52.426;9.424;2023-08-31T12:24:12;5.17;;;2.40;;
8652;SDS011;4364;52.426;9.424;2023-08-31T12:26:39;3.33;;;2.60;;
8652;SDS011;4364;52.426;9.424;2023-08-31T12:29:06;3.53;;;2.47;;
8652;SDS011;4364;52.426;9.424;2023-08-31T12:31:33;5.30;;;2.90;;
8652;SDS011;4364;52.426;9.424;2023-08-31T12:34:00;3.73;;;2.37;;
8652;SDS011;4364;52.426;9.424;2023-08-31T12:36:31;2.87;;;2.00;;
8652;SDS011;4364;52.426;9.424;2023-08-31T12:38:58;2.80;;;2.00;;
8652;SDS011;4364;52.426;9.424;2023-08-31T12:41:28;4.23;;;2.60;;
8652;SDS011;4364;52.426;9.424;2023-08-31T12:43:55;4.23;;;2.33;;
8652;SDS011;4364;52.426;9.424;2023-08-31T12:46:22;2.83;;;2.43;;
8652;SDS011;4364;52.426;9.424;2023-08-31T12:48:49;3.03;;;2.30;;
8652;SDS011;4364;52.426;9.424;2023-08-31T12:51:16;4.10;;;2.77;;
8652;SDS011;4364;52.426;9.424;2023-08-31T12:53:43;6.20;;;2.83;;
8652;SDS011;4364;52.426;9.424;2023-08-31T12:56:12;5.57;;;2.33;;
8652;SDS011;4364;52.426;9.424;2023-08-31T12:58:39;2.80;;;2.50;;
8652;SDS011;4364;52.426;9.424;2023-08-31T13:01:06;4.33;;;2.63;;
8652;SDS011;4364;52.426;9.424;2023-08-31T13:03:32;3.17;;;2.30;;
8652;SDS011;4364;52.426;9.424;2023-08-31T13:05:59;3.17;;;2.10;;
8652;SDS011;4364;52.426;9.424;2023-08-31T13:08:25;3.40;;;2.07;;
8652;SDS011;4364;52.426;9.424;2023-08-31T13:10:52;2.57;;;2.10;;
8652;SDS011;4364;52.426;9.424;2023-08-31T13:13:23;2.00;;;1.67;;
8652;SDS011;4364;52.426;9.424;2023-08-31T13:15:50;3.33;;;1.70;;
8652;SDS011;4364;52.426;9.424;2023-08-31T13:18:16;2.17;;;1.90;;
8652;SDS011;4364;52.426;9.424;2023-08-31T13:20:50;3.53;;;2.10;;
8652;SDS011;4364;52.426;9.424;2023-08-31T13:23:20;5.27;;;1.70;;
8652;SDS011;4364;52.426;9.424;2023-08-31T13:25:48;2.63;;;1.57;;
8652;SDS011;4364;52.426;9.424;2023-08-31T13:28:16;2.17;;;1.20;;
8652;SDS011;4364;52.426;9.424;2023-08-31T13:30:42;3.50;;;1.27;;
8652;SDS011;4364;52.426;9.424;2023-08-31T13:33:09;1.27;;;1.07;;
8652;SDS011;4364;52.426;9.424;2023-08-31T13:35:36;1.83;;;1.10;;
8652;SDS011;4364;52.426;9.424;2023-08-31T13:38:02;1.97;;;1.47;;
8652;SDS011;4364;52.426;9.424;2023-08-31T13:40:29;1.93;;;1.20;;
8652;SDS011;4364;52.426;9.424;2023-08-31T13:42:57;3.10;;;1.20;;
8652;SDS011;4364;52.426;9.424;2023-08-31T13:45:27;1.50;;;1.20;;
8652;SDS011;4364;52.426;9.424;2023-08-31T13:47:54;2.63;;;1.20;;
8652;SDS011;4364;52.426;9.424;2023-08-31T13:50:20;3.60;;;1.10;;
8652;SDS011;4364;52.426;9.424;2023-08-31T13:52:47;1.43;;;1.00;;
8652;SDS011;4364;52.426;9.424;2023-08-31T13:55:14;1.97;;;1.10;;
8652;SDS011;4364;52.426;9.424;2023-08-31T13:57:41;2.40;;;1.07;;
8652;SDS011;4364;52.426;9.424;2023-08-31T14:00:08;2.27;;;1.00;;
8652;SDS011;4364;52.426;9.424;2023-08-31T14:02:37;2.50;;;1.20;;
8652;SDS011;4364;52.426;9.424;2023-08-31T14:05:04;2.40;;;1.10;;
8652;SDS011;4364;52.426;9.424;2023-08-31T14:07:36;2.70;;;1.20;;
8652;SDS011;4364;52.426;9.424;2023-08-31T14:10:03;1.93;;;1.00;;
8652;SDS011;4364;52.426;9.424;2023-08-31T14:12:34;3.67;;;1.20;;
8652;SDS011;4364;52.426;9.424;2023-08-31T14:15:01;1.40;;;1.10;;
8652;SDS011;4364;52.426;9.424;2023-08-31T14:17:30;2.40;;;1.37;;
8652;SDS011;4364;52.426;9.424;2023-08-31T14:19:58;3.67;;;1.53;;
8652;SDS011;4364;52.426;9.424;2023-08-31T14:22:27;2.97;;;1.47;;
8652;SDS011;4364;52.426;9.424;2023-08-31T14:24:54;2.53;;;1.30;;
8652;SDS011;4364;52.426;9.424;2023-08-31T14:27:21;3.43;;;1.30;;
8652;SDS011;4364;52.426;9.424;2023-08-31T14:29:49;2.97;;;1.37;;
8652;SDS011;4364;52.426;9.424;2023-08-31T14:32:16;3.13;;;1.37;;
8652;SDS011;4364;52.426;9.424;2023-08-31T14:34:42;1.97;;;1.40;;
8652;SDS011;4364;52.426;9.424;2023-08-31T14:37:09;1.47;;;1.37;;
8652;SDS011;4364;52.426;9.424;2023-08-31T14:39:35;3.10;;;1.20;;
8652;SDS011;4364;52.426;9.424;2023-08-31T14:42:02;1.90;;;1.30;;
8652;SDS011;4364;52.426;9.424;2023-08-31T14:44:29;2.63;;;1.23;;
8652;SDS011;4364;52.426;9.424;2023-08-31T14:46:55;2.73;;;1.40;;
8652;SDS011;4364;52.426;9.424;2023-08-31T14:49:22;3.40;;;1.40;;
8652;SDS011;4364;52.426;9.424;2023-08-31T14:51:51;2.00;;;1.20;;
8652;SDS011;4364;52.426;9.424;2023-08-31T14:54:18;3.80;;;1.20;;
8652;SDS011;4364;52.426;9.424;2023-08-31T14:56:44;5.23;;;1.30;;
8652;SDS011;4364;52.426;9.424;2023-08-31T14:59:11;3.37;;;1.40;;
8652;SDS011;4364;52.426;9.424;2023-08-31T15:01:38;2.30;;;1.30;;
8652;SDS011;4364;52.426;9.424;2023-08-31T15:04:04;2.63;;;1.20;;
8652;SDS011;4364;52.426;9.424;2023-08-31T15:06:31;3.00;;;1.50;;
8652;SDS011;4364;52.426;9.424;2023-08-31T15:08:59;2.80;;;1.10;;
8652;SDS011;4364;52.426;9.424;2023-08-31T15:11:27;3.20;;;1.37;;
8652;SDS011;4364;52.426;9.424;2023-08-31T15:13:54;3.13;;;1.27;;
8652;SDS011;4364;52.426;9.424;2023-08-31T15:16:21;4.73;;;1.50;;
8652;SDS011;4364;52.426;9.424;2023-08-31T15:18:49;3.07;;;1.50;;
8652;SDS011;4364;52.426;9.424;2023-08-31T15:21:15;4.07;;;1.63;;
8652;SDS011;4364;52.426;9.424;2023-08-31T15:23:43;4.73;;;1.80;;